Terminal Aerodrome Forecast
Issued by NWS

Home | Current Version | Previous Version | Text Only | Print | Product List | Glossary Off
Versions: 1 2 3 4 5 6 7 8 9 10 11 12 13 14 15 16

000
FTUS43 KMPX 201720
TAFRNH
TAF
KRNH 201720Z 2018/2118 27010KT P6SM BKN025
     FM201900 29010KT P6SM SCT025
     FM210100 VRB03KT P6SM SKC
     FM211500 12007KT P6SM SKC=

USA.gov is the U.S. government's official web portal to all federal, state and local government web resources and services.